Flight Track Log - Related Links

Times and Time Zones

All times are in EDT time to prevent confusion due to time zone crossing. See the N569SC flight status page for this flight to view local times or setup timezone preferences in your user account.

Time Position Orientation Groundspeed Altitude Reporting Facility
EDT Latitude Longitude Course Direction KTS MPH feet Rate Location/Type
Sun 05:26:20 PM 35.0167 -89.9667 180° South 184 212 1,200  Level KMEM
Sun 05:27:11 PM 34.9667 -89.9667 180° South 222 255 3,700 3,033 Climbing KMEM
Sun 05:27:51 PM 34.9500 -89.9167 112° Southeast 290 334 5,800 3,396 Climbing KMEM
Sun 05:28:57 PM 35.0000 -89.8333 54° Northeast 334 384 9,700 3,312 Climbing KMEM
Sun 05:29:56 PM 35.0664 -89.7736 36° Northeast 372 428 12,700 3,176 Climbing Memphis Center
Sun 05:30:56 PM 35.1603 -89.7781 358° North 331 381 16,000 3,223 Climbing Memphis Center
Sun 05:31:57 PM 35.2647 -89.7822 358° North 331 381 19,200 3,100 Climbing Memphis Center
Sun 05:32:56 PM 35.3606 -89.7892 357° North 336 387 22,200 2,750 Climbing Memphis Center
Sun 05:33:57 PM 35.4586 -89.7936 358° North 345 397 24,700 2,380 Climbing Memphis Center
Sun 05:34:57 PM 35.5608 -89.8006 357° North 353 406 27,000 2,150 Climbing Memphis Center
Sun 05:35:57 PM 35.6631 -89.8050 358° North 364 419 29,000 1,750 Climbing Memphis Center
Sun 05:36:57 PM 35.7611 -89.8044 360° North 364 419 30,500 1,300 Climbing Memphis Center
Sun 05:37:57 PM 35.8758 -89.7781 11° North 382 440 31,600 1,300 Climbing Memphis Center
Sun 05:38:57 PM 35.9967 -89.7517 10° North 408 470 33,100 1,210 Climbing Memphis Center
Sun 05:39:56 PM 36.1153 -89.7558 358° North 419 482 34,000 700 Climbing Memphis Center
Sun 05:40:57 PM 36.2444 -89.7189 13° North 445 512 34,500 1,140 Climbing Memphis Center
Sun 05:41:57 PM 36.3569 -89.6844 14° North 452 520 36,300 1,664 Climbing Memphis Center
Sun 05:42:56 PM 36.4797 -89.6447 15° North 452 520 37,800 1,300 Climbing Memphis Center
Sun 05:43:57 PM 36.6067 -89.6256 North 452 520 38,900 1,104 Climbing Memphis Center
Sun 05:46:28 PM 36.9175 -89.6281 360° North 437 503 41,700 1,093 Climbing Kansas City Center
Sun 05:47:31 PM 37.0336 -89.6294 359° North 427 491 42,800 968 Climbing Kansas City Center
Sun 05:48:32 PM 37.1475 -89.6311 359° North 418 481 43,700 864 Climbing Kansas City Center
Sun 05:49:36 PM 37.2589 -89.6333 359° North 409 471 44,600 624 Climbing Kansas City Center
Sun 05:50:37 PM 37.3669 -89.6353 359° North 399 459 45,000 197 Climbing Kansas City Center
Sun 05:51:38 PM 37.4992 -89.6375 359° North 394 453 45,000  Level Kansas City Center
Sun 05:52:43 PM 37.6092 -89.6061 13° North 408 470 45,000  Level Kansas City Center
Sun 05:53:43 PM 37.7222 -89.5744 12° North 417 480 45,000  Level Kansas City Center
Sun 05:54:44 PM 37.8467 -89.5428 11° North 424 488 45,000  Level Kansas City Center
Sun 05:55:48 PM 37.9717 -89.5097 12° North 427 491 45,000 48 Level Kansas City Center
Sun 05:56:49 PM 38.0878 -89.4792 12° North 427 491 45,100 -148 Climbing Kansas City Center
Sun 05:57:50 PM 38.2125 -89.4467 12° North 425 489 44,700 -624 Descending Kansas City Center
Sun 05:58:54 PM 38.3297 -89.4153 12° North 430 495 43,800 -864 Descending Kansas City Center
Sun 05:59:55 PM 38.4581 -89.3806 12° North 438 504 42,900 -885 Descending Kansas City Center
Sun 06:00:56 PM 38.5783 -89.3489 12° North 442 509 42,000 -912 Descending Kansas City Center
Sun 06:02:00 PM 38.7086 -89.3142 12° North 445 512 41,000 -912 Descending Kansas City Center
Sun 06:03:01 PM 38.8319 -89.2803 12° North 453 521 40,100 -871 Descending Kansas City Center
Sun 06:04:04 PM 38.9672 -89.2444 12° North 462 532 39,200 -629 Descending Kansas City Center
Sun 06:05:05 PM 39.0944 -89.2106 12° North 466 536 38,800 -585 Descending Kansas City Center
Sun 06:06:07 PM 39.2153 -89.1767 12° North 473 544 38,000 -810 Descending Kansas City Center
Sun 06:07:11 PM 39.3483 -89.1403 12° North 483 556 37,100 -1,155 Descending Kansas City Center
Sun 06:08:48 PM 39.5958 -89.0758 11° North 507 583 34,900 -1,587 Descending Chicago Center
Sun 06:09:12 PM 39.6522 -89.0589 13° North 506 582 33,900 -2,372 Descending Kansas City Center
Sun 06:10:14 PM 39.7900 -89.0214 12° North 508 585 31,500 -2,304 Descending Kansas City Center
Sun 06:11:17 PM 39.9278 -88.9833 12° North 506 582 29,100 -1,860 Descending Kansas City Center
Sun 06:11:54 PM 40.0039 -88.9622 12° North 489 563 28,400 -1,091 Descending Chicago Center
Sun 06:12:56 PM 40.1269 -88.9289 12° North 458 527 27,300 -1,161 Descending Chicago Center
Sun 06:13:58 PM 40.2728 -88.8889 12° North 449 517 26,000 -1,200 Descending Chicago Center
Sun 06:15:01 PM 40.3881 -88.8553 13° North 430 495 24,800 -1,056 Descending Chicago Center
Sun 06:16:03 PM 40.4922 -88.8486 North 409 471 23,800 -1,161 Descending Chicago Center
Sun 06:17:05 PM 40.6206 -88.8467 North 389 448 22,400 -1,210 Descending Chicago Center
Sun 06:18:07 PM 40.7189 -88.7950 22° Northeast 388 447 21,300 -1,452 Descending Chicago Center
Sun 06:19:09 PM 40.8169 -88.7369 24° Northeast 387 445 19,400 -1,887 Descending Chicago Center
Sun 06:20:11 PM 40.9144 -88.6819 23° Northeast 384 442 17,400 -2,177 Descending Chicago Center
Sun 06:21:13 PM 41.0075 -88.6283 23° Northeast 368 423 14,900 -2,177 Descending Chicago Center
Sun 06:22:15 PM 41.0900 -88.5806 24° Northeast 330 380 12,900 -2,274 Descending Chicago Center
Sun 06:23:17 PM 41.1906 -88.5236 23° Northeast 328 377 10,200 -2,371 Descending Chicago Center
Sun 06:24:19 PM 41.2694 -88.4792 23° Northeast 314 361 8,000 -1,742 Descending Chicago Center
Sun 06:25:21 PM 41.3428 -88.4353 24° Northeast 296 341 6,600 -968 Descending Chicago Center
Sun 06:26:23 PM 41.4122 -88.3953 23° Northeast 279 321 6,000 -290 Descending Chicago Center
Sun 06:27:25 PM 41.4808 -88.3556 23° Northeast 270 311 6,000 -480 Level Chicago Center
Sun 06:28:28 PM 41.5142 -88.2753 61° Northeast 255 293 5,000 -1,152 Descending Chicago Center
Sun 06:29:30 PM 41.5436 -88.1711 69° East 250 288 3,600 -968 Descending Chicago Center
Sun 06:30:32 PM 41.5697 -88.0983 64° Northeast 231 266 3,000 -290 Descending Chicago Center
Sun 06:31:34 PM 41.5925 -88.0250 67° East 219 252 3,000  Level Chicago Center
Sun 06:32:36 PM 41.6228 -87.9558 60° Northeast 228 262 3,000  Level Chicago Center
Sun 06:33:38 PM 41.6678 -87.8997 43° Northeast 223 257 3,000 -145 Level Chicago Center
Sun 06:34:40 PM 41.7081 -87.8494 43° Northeast 212 244 2,700 -484 Descending Chicago Center
Sun 06:35:42 PM 41.7617 -87.8136 26° Northeast 196 226 2,000 -339 Descending Chicago Center
Sun 06:36:44 PM 41.8097 -87.8167 357° North 185 213 2,000 -387 Level Chicago Center
Sun 06:37:46 PM 41.8094 -87.7858 91° East 160 184 1,200 -528 Descending Chicago Center
Sun 06:38:49 PM 41.7878 -87.7597 138° Southeast 143 165 900 -286 Descending Chicago Center
Sun 06:40:00 PM 41.7833 -87.7500 51° Northeast  Level FlightAware Approximate

Login

Don't have an account? Register now (free) for customized features, flight alerts, and more!